createdAt,value
2019-05-10T00:01:45.222Z,100.00
2019-05-10T00:04:31.915Z,100.00
2019-05-10T00:07:18.859Z,100.00
2019-05-10T00:09:46.789Z,100.00
2019-05-10T00:12:19.951Z,100.00
2019-05-10T00:14:50.510Z,100.00
2019-05-10T00:17:19.750Z,100.00
2019-05-10T00:19:48.489Z,100.00
2019-05-10T00:22:17.587Z,100.00
2019-05-10T00:25:02.013Z,100.00
2019-05-10T00:27:16.873Z,100.00
2019-05-10T00:29:46.148Z,100.00
2019-05-10T00:32:14.903Z,100.00
2019-05-10T00:34:43.632Z,100.00
2019-05-10T00:37:12.620Z,100.00
2019-05-10T00:39:41.368Z,100.00
2019-05-10T00:42:10.095Z,100.00
2019-05-10T00:44:39.058Z,100.00
2019-05-10T00:47:07.796Z,100.00
2019-05-10T00:49:36.529Z,100.00
2019-05-10T00:52:06.392Z,100.00
2019-05-10T00:54:35.127Z,100.00
2019-05-10T00:57:03.867Z,100.00
2019-05-10T00:59:32.646Z,100.00
2019-05-10T01:02:01.471Z,100.00
2019-05-10T01:04:30.214Z,100.00
2019-05-10T01:06:59.104Z,100.00
2019-05-10T01:09:27.853Z,100.00
2019-05-10T01:11:56.605Z,100.00
2019-05-10T01:14:25.479Z,100.00
2019-05-10T01:16:54.223Z,100.00
2019-05-10T01:19:22.999Z,100.00
2019-05-10T01:21:51.858Z,100.00
2019-05-10T01:24:20.595Z,100.00
2019-05-10T01:26:49.326Z,100.00
2019-05-10T01:29:18.193Z,100.00
2019-05-10T01:31:46.961Z,100.00
2019-05-10T01:34:15.689Z,100.00
2019-05-10T01:36:44.631Z,100.00
2019-05-10T01:39:13.390Z,100.00
2019-05-10T01:41:42.133Z,100.00
2019-05-10T01:44:10.920Z,100.00
2019-05-10T01:46:39.665Z,100.00
2019-05-10T01:49:08.408Z,100.00
2019-05-10T01:51:37.277Z,100.00
2019-05-10T01:54:06.169Z,100.00
2019-05-10T01:56:34.909Z,100.00
2019-05-10T01:59:03.681Z,100.00
2019-05-10T02:01:32.418Z,100.00
2019-05-10T02:04:01.158Z,100.00
2019-05-10T02:06:30.039Z,100.00
2019-05-10T02:08:58.784Z,100.00
2019-05-10T02:11:27.569Z,100.00
2019-05-10T02:13:56.508Z,100.00
2019-05-10T02:16:25.225Z,100.00
2019-05-10T02:18:53.961Z,100.00
2019-05-10T02:21:22.777Z,100.00
2019-05-10T02:23:51.511Z,100.00
2019-05-10T02:26:20.247Z,100.00
2019-05-10T02:28:49.111Z,100.00
2019-05-10T02:31:21.402Z,100.00
2019-05-10T02:33:48.518Z,100.00
2019-05-10T02:36:17.695Z,100.00
2019-05-10T02:38:46.441Z,100.00
2019-05-10T02:41:15.165Z,100.00
2019-05-10T02:43:43.972Z,100.00
2019-05-10T02:46:12.706Z,100.00
2019-05-10T02:48:41.470Z,100.00
2019-05-10T02:51:10.358Z,100.00
2019-05-10T02:53:39.608Z,100.00
2019-05-10T02:56:29.049Z,100.00
2019-05-10T02:58:45.253Z,100.00
2019-05-10T03:01:16.446Z,100.00
2019-05-10T03:03:45.295Z,100.00
2019-05-10T03:06:15.857Z,100.00
2019-05-10T03:08:52.778Z,100.00
2019-05-10T03:11:21.590Z,100.00
2019-05-10T03:13:52.393Z,100.00
2019-05-10T03:16:23.318Z,100.00
2019-05-10T03:18:53.610Z,100.00
2019-05-10T03:21:24.511Z,100.00
2019-05-10T03:23:53.507Z,100.00
2019-05-10T03:26:22.490Z,100.00
2019-05-10T03:28:51.217Z,100.00
2019-05-10T03:31:20.073Z,100.00
2019-05-10T03:33:55.709Z,100.00
2019-05-10T03:36:19.408Z,100.00
2019-05-10T03:38:48.721Z,100.00
2019-05-10T03:41:17.682Z,100.00
2019-05-10T03:43:46.409Z,100.00
2019-05-10T03:46:15.140Z,100.00
2019-05-10T03:48:44.191Z,100.00
2019-05-10T03:51:12.926Z,100.00
2019-05-10T03:53:41.646Z,100.00
2019-05-10T03:56:10.469Z,100.00
2019-05-10T03:58:39.217Z,100.00
2019-05-10T04:01:07.972Z,100.00
2019-05-10T04:03:36.869Z,100.00
2019-05-10T04:06:05.595Z,100.00
2019-05-10T04:08:34.334Z,100.00
2019-05-10T04:11:03.208Z,100.00
2019-05-10T04:13:32.000Z,100.00
2019-05-10T04:16:00.732Z,100.00
2019-05-10T04:18:29.520Z,100.00
2019-05-10T04:20:58.265Z,100.00
2019-05-10T04:23:27.011Z,100.00
2019-05-10T04:25:55.866Z,100.00
2019-05-10T04:28:24.601Z,100.00
2019-05-10T04:30:53.334Z,100.00
2019-05-10T04:33:22.149Z,100.00
2019-05-10T04:35:50.899Z,100.00
2019-05-10T04:38:19.646Z,100.00
2019-05-10T04:40:48.628Z,100.00
2019-05-10T04:43:17.368Z,100.00
2019-05-10T04:45:46.111Z,100.00
2019-05-10T04:48:15.120Z,100.00
2019-05-10T04:50:43.849Z,100.00
2019-05-10T04:53:12.438Z,100.00
2019-05-10T04:55:41.204Z,100.00
2019-05-10T04:58:09.954Z,100.00
2019-05-10T05:00:38.886Z,100.00
2019-05-10T05:03:07.859Z,100.00
2019-05-10T05:05:36.584Z,100.00
2019-05-10T05:08:06.382Z,100.00
2019-05-10T05:10:35.381Z,100.00
2019-05-10T05:13:04.108Z,100.00
2019-05-10T05:15:32.840Z,100.00
2019-05-10T05:18:01.812Z,100.00
2019-05-10T05:20:30.551Z,100.00
2019-05-10T05:22:59.296Z,100.00
2019-05-10T05:25:28.161Z,100.00
2019-05-10T05:28:07.491Z,100.00
2019-05-10T05:30:27.362Z,100.00
2019-05-10T05:32:57.071Z,100.00
2019-05-10T05:35:25.962Z,99.46
2019-05-10T05:37:54.687Z,98.44
2019-05-10T05:40:23.458Z,98.81
2019-05-10T05:42:52.185Z,98.86
2019-05-10T05:45:20.921Z,97.04
2019-05-10T05:47:49.820Z,95.08
2019-05-10T05:50:18.545Z,91.54
2019-05-10T05:52:47.301Z,89.88
2019-05-10T05:55:16.182Z,90.27
2019-05-10T05:57:44.924Z,90.33
2019-05-10T06:00:13.962Z,89.58
2019-05-10T06:02:44.939Z,88.88
2019-05-10T06:05:13.395Z,88.86
2019-05-10T06:07:42.121Z,88.65
2019-05-10T06:10:17.112Z,88.00
2019-05-10T06:12:44.455Z,88.85
2019-05-10T06:15:12.093Z,90.27
2019-05-10T06:17:40.961Z,90.96
2019-05-10T06:20:09.929Z,89.67
2019-05-10T06:22:43.854Z,86.88
2019-05-10T06:25:09.384Z,89.55
2019-05-10T06:27:43.238Z,83.63
2019-05-10T06:30:12.531Z,82.83
2019-05-10T06:32:41.334Z,82.44
2019-05-10T06:35:14.106Z,81.35
2019-05-10T06:37:40.920Z,80.88
2019-05-10T06:40:09.899Z,84.61
2019-05-10T06:42:38.626Z,83.75
2019-05-10T06:45:14.512Z,86.21
2019-05-10T06:47:41.990Z,82.58
2019-05-10T06:50:09.540Z,77.90
2019-05-10T06:52:38.272Z,74.65
2019-05-10T06:55:08.943Z,73.31
2019-05-10T06:57:37.668Z,67.14
2019-05-10T07:00:08.237Z,68.51
2019-05-10T07:02:37.301Z,70.60
2019-05-10T07:05:06.868Z,70.24
2019-05-10T07:07:44.252Z,73.70
2019-05-10T07:10:15.751Z,70.44
2019-05-10T07:12:38.572Z,68.15
2019-05-10T07:15:08.896Z,67.36
2019-05-10T07:17:45.460Z,67.21
2019-05-10T07:20:08.726Z,69.21
2019-05-10T07:22:37.454Z,66.57
2019-05-10T07:25:07.766Z,66.89
2019-05-10T07:27:38.504Z,63.84
2019-05-10T07:30:07.531Z,63.72
2019-05-10T07:32:37.127Z,66.43
2019-05-10T07:35:07.615Z,65.44
2019-05-10T07:37:36.336Z,66.75
2019-05-10T07:40:07.210Z,67.21
2019-05-10T07:42:39.909Z,67.35
2019-05-10T07:45:09.383Z,66.60
2019-05-10T07:47:38.782Z,67.39
2019-05-10T07:50:09.838Z,66.96
2019-05-10T07:52:43.636Z,68.70
2019-05-10T07:55:10.584Z,69.12
2019-05-10T07:57:39.551Z,69.89
2019-05-10T08:00:08.499Z,68.67
2019-05-10T08:02:37.308Z,69.45
2019-05-10T08:05:11.096Z,68.87
2019-05-10T08:07:38.737Z,69.46
2019-05-10T08:10:08.891Z,70.10
2019-05-10T08:12:41.481Z,69.76
2019-05-10T08:15:09.340Z,66.96
2019-05-10T08:17:43.760Z,69.08
2019-05-10T08:20:20.387Z,65.81
2019-05-10T08:22:44.494Z,63.05
2019-05-10T08:25:12.748Z,63.22
2019-05-10T08:27:44.035Z,63.34
2019-05-10T08:30:27.954Z,60.42
2019-05-10T08:32:44.579Z,63.10
2019-05-10T08:35:17.093Z,59.82
2019-05-10T08:37:43.950Z,58.62
2019-05-10T08:40:13.408Z,60.12
2019-05-10T08:42:48.174Z,63.72
2019-05-10T08:45:12.759Z,57.40
2019-05-10T08:47:42.664Z,59.44
2019-05-10T08:50:29.189Z,59.74
2019-05-10T08:52:42.618Z,58.26
2019-05-10T08:55:12.332Z,57.95
2019-05-10T08:57:44.236Z,57.45
2019-05-10T09:00:13.007Z,57.43
2019-05-10T09:02:42.805Z,55.81
2019-05-10T09:05:12.607Z,57.36
2019-05-10T09:07:44.981Z,57.13
2019-05-10T09:10:12.923Z,54.46
2019-05-10T09:12:50.659Z,55.66
2019-05-10T09:15:13.454Z,56.08
2019-05-10T09:17:43.169Z,55.80
2019-05-10T09:20:20.837Z,54.57
2019-05-10T09:22:42.670Z,52.87
2019-05-10T09:25:12.895Z,51.95
2019-05-10T09:27:43.201Z,51.77
2019-05-10T09:30:15.518Z,52.20
2019-05-10T09:32:43.655Z,51.17
2019-05-10T09:35:12.974Z,53.30
2019-05-10T09:37:42.325Z,51.49
2019-05-10T09:40:13.443Z,50.45
2019-05-10T09:42:43.629Z,53.64
2019-05-10T09:45:13.002Z,52.39
2019-05-10T09:47:43.511Z,52.46
2019-05-10T09:50:12.947Z,52.38
2019-05-10T09:52:54.068Z,53.42
2019-05-10T09:55:22.795Z,54.66
2019-05-10T09:57:51.525Z,55.34
2019-05-10T10:00:30.239Z,56.16
2019-05-10T10:03:01.573Z,55.65
2019-05-10T10:05:28.689Z,56.01
2019-05-10T10:07:57.881Z,56.05
2019-05-10T10:10:31.903Z,55.42
2019-05-10T10:12:58.315Z,54.93
2019-05-10T10:15:33.535Z,54.97
2019-05-10T10:17:58.321Z,53.51
2019-05-10T10:20:29.768Z,53.77
2019-05-10T10:22:57.874Z,52.55
2019-05-10T10:25:29.800Z,55.62
2019-05-10T10:27:57.488Z,52.94
2019-05-10T10:30:27.545Z,51.24
2019-05-10T10:32:58.103Z,51.13
2019-05-10T10:35:29.793Z,50.02
2019-05-10T10:38:02.979Z,49.14
2019-05-10T10:40:28.726Z,44.77
2019-05-10T10:42:57.829Z,44.59
2019-05-10T10:45:27.672Z,44.79
2019-05-10T10:47:57.320Z,45.76
2019-05-10T10:50:27.613Z,45.15
2019-05-10T10:52:57.547Z,42.04
2019-05-10T10:55:30.882Z,42.88
2019-05-10T10:57:57.759Z,44.13
2019-05-10T11:00:34.694Z,45.04
2019-05-10T11:03:05.207Z,46.27
2019-05-10T11:05:33.952Z,45.29
2019-05-10T11:08:02.718Z,46.44
2019-05-10T11:10:32.538Z,48.18
2019-05-10T11:13:07.983Z,46.31
2019-05-10T11:15:35.912Z,49.03
2019-05-10T11:18:02.672Z,49.49
2019-05-10T11:20:31.870Z,49.40
2019-05-10T11:23:00.826Z,48.99
2019-05-10T11:25:29.543Z,47.48
2019-05-10T11:28:01.392Z,48.28
2019-05-10T11:30:28.831Z,46.81
2019-05-10T11:32:57.550Z,46.44
2019-05-10T11:35:31.096Z,48.77
2019-05-10T11:37:56.807Z,45.93
2019-05-10T11:40:30.685Z,49.19
2019-05-10T11:42:57.504Z,45.73
2019-05-10T11:45:32.203Z,43.17
2019-05-10T11:47:59.174Z,48.36
2019-05-10T11:50:31.729Z,47.88
2019-05-10T11:52:57.730Z,48.04
2019-05-10T11:55:26.455Z,48.82
2019-05-10T12:00:31.938Z,47.19
2019-05-10T12:03:06.988Z,50.56
2019-05-10T12:05:27.026Z,47.67
2019-05-10T12:07:55.858Z,49.34
2019-05-10T12:10:25.642Z,45.62
2019-05-10T12:13:08.511Z,49.24
2019-05-10T12:15:26.180Z,50.99
2019-05-10T12:17:59.172Z,46.22
2019-05-10T12:20:38.945Z,45.54
2019-05-10T12:23:02.943Z,43.48
2019-05-10T12:25:47.220Z,43.95
2019-05-10T12:26:04.744Z,46.54
2019-05-10T12:28:01.273Z,42.67
2019-05-10T12:30:34.857Z,44.55
2019-05-10T12:33:08.855Z,42.31
2019-05-10T12:35:35.580Z,41.23
2019-05-10T12:38:01.739Z,39.20
2019-05-10T12:40:31.420Z,41.52
2019-05-10T12:43:00.682Z,43.36
2019-05-10T12:45:31.348Z,41.12
2019-05-10T12:48:01.283Z,41.72
2019-05-10T12:50:30.262Z,40.29
2019-05-10T12:53:12.623Z,41.66
2019-05-10T12:55:29.722Z,42.84
2019-05-10T12:57:58.469Z,43.31
2019-05-10T13:00:27.403Z,44.07
2019-05-10T13:03:11.621Z,41.59
2019-05-10T13:05:31.864Z,41.43
2019-05-10T13:07:57.160Z,43.00
2019-05-10T13:10:26.033Z,41.20
2019-05-10T13:12:54.787Z,38.86
2019-05-10T13:15:24.690Z,38.34
2019-05-10T13:17:54.243Z,39.96
2019-05-10T13:20:23.020Z,41.44
2019-05-10T13:22:51.886Z,41.91
2019-05-10T13:25:20.628Z,44.04
2019-05-10T13:27:50.945Z,44.21
2019-05-10T13:30:27.029Z,42.82
2019-05-10T13:32:53.096Z,41.76
2019-05-10T13:35:20.690Z,41.53
2019-05-10T13:37:49.495Z,42.23
2019-05-10T13:40:18.224Z,44.18
2019-05-10T13:42:46.939Z,43.92
2019-05-10T13:45:15.900Z,45.23
2019-05-10T13:47:44.624Z,43.50
2019-05-10T13:50:15.049Z,41.40
2019-05-10T13:52:44.376Z,40.11
2019-05-10T13:55:13.102Z,41.76
2019-05-10T13:57:41.844Z,44.41
2019-05-10T14:00:11.366Z,46.37
2019-05-10T14:02:40.097Z,48.08
2019-05-10T14:05:11.856Z,48.77
2019-05-10T14:07:39.501Z,47.16
2019-05-10T14:10:09.260Z,49.51
2019-05-10T14:12:37.979Z,43.11
2019-05-10T14:15:11.301Z,42.06
2019-05-10T14:17:38.627Z,40.40
2019-05-10T14:20:19.723Z,40.96
2019-05-10T14:22:39.212Z,40.83
2019-05-10T14:25:09.142Z,38.55
2019-05-10T14:27:38.600Z,37.43
2019-05-10T14:30:13.702Z,39.36
2019-05-10T14:32:39.932Z,39.35
2019-05-10T14:35:11.524Z,39.73
2019-05-10T14:37:42.964Z,40.58
2019-05-10T14:40:17.044Z,41.51
2019-05-10T14:42:42.136Z,42.39
2019-05-10T14:45:11.234Z,42.29
2019-05-10T14:47:47.584Z,42.51
2019-05-10T14:50:13.283Z,43.48
2019-05-10T14:52:42.052Z,44.40
2019-05-10T14:55:12.920Z,43.53
2019-05-10T14:57:41.319Z,43.87
2019-05-10T15:00:10.447Z,45.21
2019-05-10T15:02:39.214Z,44.23
2019-05-10T15:05:16.127Z,44.06
2019-05-10T15:07:38.615Z,44.70
2019-05-10T15:10:07.571Z,43.80
2019-05-10T15:12:36.279Z,41.03
2019-05-10T15:15:06.239Z,41.43
2019-05-10T15:17:34.961Z,40.68
2019-05-10T15:20:05.460Z,41.28
2019-05-10T15:22:34.330Z,40.10
2019-05-10T15:25:03.039Z,40.26
2019-05-10T15:27:31.772Z,40.20
2019-05-10T15:30:05.172Z,40.71
2019-05-10T15:32:30.981Z,40.26
2019-05-10T15:35:08.397Z,41.22
2019-05-10T15:37:30.317Z,41.08
2019-05-10T15:40:00.621Z,41.31
2019-05-10T15:42:30.449Z,42.16
2019-05-10T15:45:05.190Z,42.56
2019-05-10T15:47:30.726Z,42.49
2019-05-10T15:50:01.279Z,41.97
2019-05-10T15:52:29.985Z,41.85
2019-05-10T15:54:58.705Z,41.63
2019-05-10T15:57:27.484Z,41.79
2019-05-10T15:59:58.942Z,41.48
2019-05-10T16:02:26.804Z,42.62
2019-05-10T16:04:55.526Z,42.16
2019-05-10T16:07:24.320Z,42.15
2019-05-10T16:09:54.704Z,43.80
2019-05-10T16:12:23.490Z,43.85
2019-05-10T16:14:52.450Z,44.69
2019-05-10T16:17:23.970Z,45.87
2019-05-10T16:19:59.717Z,46.57
2019-05-10T16:22:25.397Z,48.16
2019-05-10T16:24:52.725Z,49.92
2019-05-10T16:27:21.546Z,51.74
2019-05-10T16:29:50.428Z,53.42
2019-05-10T16:32:19.232Z,53.82
2019-05-10T16:34:47.954Z,55.24
2019-05-10T16:37:16.904Z,56.43
2019-05-10T16:39:45.625Z,57.08
2019-05-10T16:42:14.446Z,58.02
2019-05-10T16:44:43.363Z,58.59
2019-05-10T16:47:12.092Z,59.21
2019-05-10T16:49:40.828Z,59.70
2019-05-10T16:52:09.693Z,60.09
2019-05-10T16:54:38.418Z,60.99
2019-05-10T16:57:07.155Z,60.51
2019-05-10T16:59:36.017Z,59.63
2019-05-10T17:02:06.514Z,60.14
2019-05-10T17:04:37.913Z,60.04
2019-05-10T17:07:05.975Z,60.12
2019-05-10T17:09:34.699Z,60.64
2019-05-10T17:12:03.427Z,61.10
2019-05-10T17:14:32.297Z,61.05
2019-05-10T17:17:01.019Z,61.37
2019-05-10T17:19:46.859Z,61.95
2019-05-10T17:22:05.625Z,62.44
2019-05-10T17:24:34.354Z,62.17
2019-05-10T17:27:03.139Z,62.96
2019-05-10T17:29:32.100Z,63.60
2019-05-10T17:32:00.829Z,64.15
2019-05-10T17:34:29.819Z,64.77
2019-05-10T17:36:59.846Z,65.41
2019-05-10T17:39:32.071Z,66.23
2019-05-10T17:42:03.148Z,66.72
2019-05-10T17:44:29.737Z,66.72
2019-05-10T17:46:59.626Z,66.84
2019-05-10T17:49:28.363Z,67.11
2019-05-10T17:51:57.226Z,67.36
2019-05-10T17:54:25.956Z,67.90
2019-05-10T17:56:54.678Z,67.82
2019-05-10T17:59:23.637Z,67.17
2019-05-10T18:01:52.404Z,67.22
2019-05-10T18:04:21.163Z,66.08
2019-05-10T18:06:49.942Z,65.26
2019-05-10T18:09:18.722Z,64.97
2019-05-10T18:11:47.457Z,64.50
2019-05-10T18:14:19.804Z,64.13
2019-05-10T18:16:50.177Z,63.60
2019-05-10T18:19:24.453Z,63.10
2019-05-10T18:21:54.825Z,63.10
2019-05-10T18:24:21.988Z,62.46
2019-05-10T18:26:50.731Z,61.63
2019-05-10T18:29:20.120Z,61.16
2019-05-10T18:31:56.346Z,61.31
2019-05-10T18:34:19.401Z,61.54
2019-05-10T18:36:51.406Z,61.53
2019-05-10T18:39:18.667Z,62.09
2019-05-10T18:41:48.132Z,61.93
2019-05-10T18:44:17.007Z,62.67
2019-05-10T18:46:47.219Z,63.06
2019-05-10T18:49:15.971Z,63.23
2019-05-10T18:51:44.731Z,63.38
2019-05-10T18:54:15.534Z,63.00
2019-05-10T18:56:43.951Z,62.63
2019-05-10T18:59:12.787Z,62.58
2019-05-10T19:01:42.838Z,61.53
2019-05-10T19:04:13.998Z,60.84
2019-05-10T19:06:44.019Z,60.47
2019-05-10T19:09:12.650Z,60.53
2019-05-10T19:11:41.531Z,61.09
2019-05-10T19:14:10.430Z,62.08
2019-05-10T19:16:39.125Z,62.43
2019-05-10T19:19:07.842Z,63.33
2019-05-10T19:21:37.945Z,63.45
2019-05-10T19:24:07.021Z,63.78
2019-05-10T19:26:35.740Z,64.30
2019-05-10T19:29:06.527Z,64.66
2019-05-10T19:31:38.059Z,64.94
2019-05-10T19:34:08.984Z,65.26
2019-05-10T19:36:36.639Z,65.48
2019-05-10T19:39:07.059Z,65.99
2019-05-10T19:41:35.795Z,66.18
2019-05-10T19:44:04.828Z,66.72
2019-05-10T19:46:39.302Z,66.92
2019-05-10T19:49:07.700Z,67.37
2019-05-10T19:51:35.599Z,66.84
2019-05-10T19:54:07.272Z,66.34
2019-05-10T19:56:38.608Z,66.05
2019-05-10T19:59:11.754Z,65.98
2019-05-10T20:01:36.953Z,66.21
2019-05-10T20:04:09.155Z,66.15
2019-05-10T20:06:36.439Z,65.88
2019-05-10T20:09:07.931Z,66.07
2019-05-10T20:11:36.660Z,66.18
2019-05-10T20:14:07.609Z,66.50
2019-05-10T20:16:51.379Z,67.40
2019-05-10T20:19:09.267Z,67.78
2019-05-10T20:21:37.031Z,68.03
2019-05-10T20:24:05.746Z,68.11
2019-05-10T20:26:34.463Z,68.38
2019-05-10T20:29:03.311Z,68.67
2019-05-10T20:31:32.031Z,68.75
2019-05-10T20:34:00.777Z,68.98
2019-05-10T20:36:29.899Z,69.29
2019-05-10T20:39:00.840Z,69.93
2019-05-10T20:41:29.111Z,70.46
2019-05-10T20:43:57.917Z,70.71
2019-05-10T20:46:26.633Z,70.69
2019-05-10T20:48:55.366Z,70.98
2019-05-10T20:51:25.878Z,72.60
2019-05-10T20:53:54.617Z,72.44
2019-05-10T20:56:23.345Z,72.62
2019-05-10T20:58:52.214Z,72.96
2019-05-10T21:01:20.951Z,72.68
2019-05-10T21:03:49.687Z,73.20
2019-05-10T21:06:18.420Z,74.22
2019-05-10T21:08:47.137Z,75.20
2019-05-10T21:11:16.941Z,75.19
2019-05-10T21:13:45.802Z,74.40
2019-05-10T21:16:14.523Z,75.04
2019-05-10T21:18:43.258Z,74.47
2019-05-10T21:21:12.134Z,74.30
2019-05-10T21:23:40.934Z,74.47
2019-05-10T21:26:09.660Z,74.83
2019-05-10T21:28:38.538Z,75.29
2019-05-10T21:31:07.232Z,74.88
2019-05-10T21:33:35.962Z,74.46
2019-05-10T21:36:04.744Z,74.69
2019-05-10T21:38:33.700Z,74.77
2019-05-10T21:41:02.466Z,75.37
2019-05-10T21:43:31.319Z,75.33
2019-05-10T21:46:00.044Z,75.03
2019-05-10T21:48:28.963Z,75.58
2019-05-10T21:50:57.855Z,76.05
2019-05-10T21:53:26.655Z,76.18
2019-05-10T21:55:55.379Z,76.51
2019-05-10T21:58:24.257Z,77.02
2019-05-10T22:00:53.377Z,77.30
2019-05-10T22:03:22.091Z,77.50
2019-05-10T22:05:50.960Z,77.41
2019-05-10T22:08:19.692Z,77.48
2019-05-10T22:10:48.399Z,77.26
2019-05-10T22:13:17.502Z,77.26
2019-05-10T22:15:46.224Z,77.47
2019-05-10T22:18:14.948Z,77.40
2019-05-10T22:20:43.779Z,77.33
2019-05-10T22:23:12.509Z,76.97
2019-05-10T22:25:41.225Z,77.28
2019-05-10T22:28:10.187Z,77.54
2019-05-10T22:30:39.106Z,77.95
2019-05-10T22:33:07.821Z,78.23
2019-05-10T22:35:36.704Z,77.95
2019-05-10T22:38:05.632Z,78.28
2019-05-10T22:40:34.411Z,78.80
2019-05-10T22:43:03.413Z,78.59
2019-05-10T22:45:32.124Z,77.94
2019-05-10T22:48:00.850Z,78.58
2019-05-10T22:50:29.627Z,78.83
2019-05-10T22:52:58.362Z,79.59
2019-05-10T22:55:27.073Z,80.02
2019-05-10T22:57:55.857Z,79.48
2019-05-10T23:00:24.782Z,79.73
2019-05-10T23:02:53.498Z,79.54
2019-05-10T23:05:22.381Z,79.42
2019-05-10T23:07:51.098Z,79.22
2019-05-10T23:10:19.824Z,78.76
2019-05-10T23:12:48.693Z,78.23
2019-05-10T23:15:17.418Z,78.20
2019-05-10T23:17:46.142Z,77.47
2019-05-10T23:20:15.448Z,78.20
2019-05-10T23:22:44.162Z,78.31
2019-05-10T23:25:12.891Z,78.58
2019-05-10T23:27:41.845Z,78.84
2019-05-10T23:30:10.671Z,79.33
2019-05-10T23:32:39.482Z,79.72
2019-05-10T23:35:09.325Z,79.19
2019-05-10T23:37:38.132Z,79.92
2019-05-10T23:40:07.429Z,79.95
2019-05-10T23:42:36.428Z,80.20
2019-05-10T23:45:06.850Z,80.67
2019-05-10T23:47:35.656Z,80.44
2019-05-10T23:50:04.927Z,80.31
2019-05-10T23:52:33.729Z,80.33
2019-05-10T23:55:02.539Z,80.97
2019-05-10T23:57:31.404Z,81.13
